Time;durP1;ratioP1;P1;durP2;ratioP2;P2;SDS_P1;SDS_P2;PMS_P1;PMS_P2;Temp;Humidity;BMP_temperature;BMP_pressure;BME280_temperature;BME280_humidity;BME280_pressure;Samples;Min_cycle;Max_cycle;Signal;HPM_P1;HPM_P2
2021/11/09 00:00:46;;;;;;;12.98;9.25;;;;;;;26.49;22.92;98854.72;5072104;28;20037;-86
2021/11/09 00:03:14;;;;;;;11.75;7.68;;;;;;;25.96;23.41;98866.94;5069668;28;20401;-86
2021/11/09 00:05:51;;;;;;;15.27;10.18;;;;;;;25.65;23.94;98859.03;5075030;28;20029;-86
2021/11/09 00:08:22;;;;;;;15.88;10.32;;;;;;;25.21;24.42;98865.69;5064321;28;20025;-85
2021/11/09 00:10:48;;;;;;;14.13;9.15;;;;;;;24.95;24.96;98872.84;5077876;28;20111;-86
2021/11/09 00:13:15;;;;;;;14.93;9.48;;;;;;;25.05;24.75;98865.50;5065670;28;20033;-85
2021/11/09 00:15:42;;;;;;;13.75;9.88;;;;;;;24.99;24.92;98870.00;5068117;28;20028;-85
2021/11/09 00:18:08;;;;;;;19.80;10.38;;;;;;;25.00;24.94;98874.41;5071847;28;20075;-85
2021/11/09 00:20:37;;;;;;;13.88;9.20;;;;;;;24.96;25.21;98877.25;5069951;28;20036;-86
2021/11/09 00:23:04;;;;;;;16.35;10.95;;;;;;;25.27;24.59;98878.06;5064669;28;20037;-86
2021/11/09 00:25:31;;;;;;;15.65;9.55;;;;;;;25.39;24.31;98880.31;5066012;28;20505;-86
2021/11/09 00:27:57;;;;;;;19.33;10.73;;;;;;;25.72;23.98;98879.41;5072537;28;20032;-87
2021/11/09 00:30:25;;;;;;;12.40;8.10;;;;;;;25.60;24.35;98876.41;5072875;28;20070;-87
2021/11/09 00:32:52;;;;;;;15.05;9.48;;;;;;;25.82;23.98;98884.06;5073133;28;20115;-87
2021/11/09 00:35:22;;;;;;;15.70;10.25;;;;;;;25.86;23.98;98890.41;5073718;28;20024;-87
2021/11/09 00:37:49;;;;;;;15.43;9.50;;;;;;;25.86;23.89;98884.78;5069920;28;20024;-87
2021/11/09 00:40:18;;;;;;;17.38;8.95;;;;;;;25.91;23.85;98887.13;5069254;28;20044;-87
2021/11/09 00:42:44;;;;;;;16.67;10.30;;;;;;;26.17;23.51;98888.31;5073267;28;20025;-87
2021/11/09 00:45:13;;;;;;;14.38;8.07;;;;;;;26.22;23.23;98887.84;5067504;28;20861;-88
2021/11/09 00:47:41;;;;;;;12.93;8.80;;;;;;;26.19;23.30;98888.69;5065957;28;20040;-88
2021/11/09 00:50:09;;;;;;;14.25;8.90;;;;;;;26.33;23.13;98885.63;5072446;28;20107;-88
2021/11/09 00:52:35;;;;;;;13.00;7.78;;;;;;;26.31;23.29;98884.44;5068325;28;20033;-87
2021/11/09 00:55:02;;;;;;;14.98;8.98;;;;;;;26.13;23.38;98883.97;5063583;28;20032;-87
2021/11/09 00:57:29;;;;;;;12.68;8.48;;;;;;;26.07;23.89;98883.63;5052053;28;20450;-87
2021/11/09 00:59:55;;;;;;;13.13;9.18;;;;;;;25.88;24.08;98884.38;5072300;28;20029;-87
2021/11/09 01:02:21;;;;;;;13.35;8.25;;;;;;;25.78;24.15;98883.34;5069023;28;20509;-87
2021/11/09 01:04:47;;;;;;;14.43;9.27;;;;;;;26.01;23.79;98888.97;5067545;28;20035;-88
2021/11/09 01:07:13;;;;;;;10.10;7.07;;;;;;;25.86;23.98;98884.00;5062522;28;20474;-88
2021/11/09 01:09:39;;;;;;;11.30;7.57;;;;;;;25.99;23.63;98877.34;5063822;28;20032;-87
2021/11/09 01:12:08;;;;;;;13.50;7.95;;;;;;;26.05;23.79;98892.53;5058973;28;20025;-86
2021/11/09 01:14:34;;;;;;;13.00;7.88;;;;;;;25.96;23.57;98888.66;5069721;28;20029;-86
2021/11/09 01:17:01;;;;;;;11.73;7.07;;;;;;;25.62;24.14;98885.19;5066269;28;20016;-86
2021/11/09 01:19:31;;;;;;;8.43;6.47;;;;;;;25.91;23.70;98884.31;5067647;28;20094;-85
2021/11/09 01:21:57;;;;;;;12.85;7.72;;;;;;;25.50;24.23;98883.78;5067855;28;20135;-88
2021/11/09 01:24:23;;;;;;;12.65;8.25;;;;;;;25.00;25.11;98883.63;5050972;28;20414;-88
2021/11/09 01:26:50;;;;;;;10.23;6.50;;;;;;;24.59;26.08;98883.72;5066280;28;20032;-88
2021/11/09 01:29:16;;;;;;;12.20;7.63;;;;;;;24.50;25.90;98883.41;5060828;28;20095;-88
2021/11/09 01:31:42;;;;;;;9.88;6.47;;;;;;;24.28;26.17;98886.84;5067617;28;20024;-87
2021/11/09 01:34:09;;;;;;;9.80;7.38;;;;;;;24.54;25.93;98891.78;5063654;28;20032;-88
2021/11/09 01:36:36;;;;;;;9.80;6.78;;;;;;;24.08;26.37;98888.66;5071643;28;20052;-86
2021/11/09 01:39:04;;;;;;;9.98;7.05;;;;;;;24.45;25.99;98883.88;5069930;28;20079;-87
2021/11/09 01:41:31;;;;;;;9.75;6.53;;;;;;;24.42;26.05;98893.13;5061825;28;20120;-87
2021/11/09 01:43:58;;;;;;;15.10;8.55;;;;;;;24.40;26.01;98892.75;5069745;28;20115;-87
2021/11/09 01:46:24;;;;;;;10.63;7.32;;;;;;;23.89;26.73;98898.41;5067320;28;20028;-88
2021/11/09 01:48:50;;;;;;;11.57;7.05;;;;;;;23.90;26.74;98897.97;5066975;28;20040;-87
2021/11/09 01:51:19;;;;;;;9.38;7.00;;;;;;;24.01;26.62;98895.88;5066995;28;20029;-87
2021/11/09 01:53:48;;;;;;;11.10;7.57;;;;;;;23.83;26.83;98898.03;5068160;28;20028;-87
2021/11/09 01:56:17;;;;;;;9.68;6.50;;;;;;;24.23;26.42;98898.50;5064176;28;20111;-87
2021/11/09 01:58:44;;;;;;;11.73;7.70;;;;;;;24.06;26.25;98903.09;5062918;28;20032;-88
2021/11/09 02:01:19;;;;;;;9.15;5.95;;;;;;;24.02;26.62;98908.69;5068423;28;20063;-87
2021/11/09 02:03:49;;;;;;;7.60;5.55;;;;;;;23.66;27.18;98906.59;5066753;28;20023;-86
2021/11/09 02:06:16;;;;;;;;;;;;;;;23.43;27.70;98909.94;5068777;28;20028;-89
2021/11/09 02:08:43;;;;;;;10.38;6.22;;;;;;;23.68;27.16;98915.38;5066913;28;19958;-88
2021/11/09 02:11:10;;;;;;;14.20;7.63;;;;;;;23.88;26.81;98914.41;5065054;28;20417;-86
2021/11/09 02:13:36;;;;;;;10.65;7.43;;;;;;;23.91;26.75;98912.81;5065017;28;20032;-86
2021/11/09 02:16:02;;;;;;;10.95;6.75;;;;;;;24.04;26.57;98917.50;5064400;28;20040;-86
2021/11/09 02:18:29;;;;;;;10.68;7.15;;;;;;;24.12;26.47;98911.84;5048983;28;20490;-86
2021/11/09 02:21:11;;;;;;;9.55;6.43;;;;;;;23.97;26.69;98923.16;5062984;28;20399;-86
2021/11/09 02:23:41;;;;;;;10.38;7.85;;;;;;;24.22;26.27;98899.75;5065345;28;20047;-86
2021/11/09 02:26:10;;;;;;;12.68;8.10;;;;;;;23.50;27.44;98911.91;5071928;28;20020;-86
2021/11/09 02:28:36;;;;;;;8.48;5.75;;;;;;;23.66;27.23;98912.19;5073041;28;20044;-86
2021/11/09 02:31:03;;;;;;;11.63;7.70;;;;;;;23.76;27.16;98916.91;5071305;28;20029;-86
2021/11/09 02:33:29;;;;;;;9.68;7.10;;;;;;;23.77;27.11;98924.94;5071029;28;20028;-86
2021/11/09 02:35:55;;;;;;;8.93;6.53;;;;;;;23.66;27.44;98929.81;5072569;28;20037;-86
2021/11/09 02:38:21;;;;;;;11.63;7.28;;;;;;;23.68;27.20;98924.59;5075803;28;20041;-86
2021/11/09 02:40:48;;;;;;;10.77;8.02;;;;;;;24.05;26.72;98929.50;5072450;28;20032;-89
2021/11/09 02:43:15;;;;;;;9.27;7.25;;;;;;;23.80;27.00;98926.91;5068492;28;20416;-89
2021/11/09 02:48:29;;;;;;;13.30;7.40;;;;;;;23.89;26.88;98938.47;5067905;28;20124;-89
2021/11/09 02:51:14;;;;;;;10.55;7.55;;;;;;;23.74;27.11;98938.97;5067644;28;20128;-89
2021/11/09 02:54:17;;;;;;;8.98;6.85;;;;;;;24.06;26.39;98939.56;5071652;28;20501;-88
2021/11/09 02:56:40;;;;;;;11.25;7.43;;;;;;;24.01;26.77;98939.97;5065339;28;20044;-89
2021/11/09 03:01:44;;;;;;;10.95;7.10;;;;;;;23.87;26.89;98951.31;5072375;28;20551;-88
2021/11/09 03:06:51;;;;;;;9.43;6.75;;;;;;;24.66;25.84;98942.59;5066869;28;20033;-88
2021/11/09 03:09:33;;;;;;;12.27;8.15;;;;;;;24.29;26.31;98947.38;5065559;28;20064;-88
2021/11/09 03:12:02;;;;;;;14.80;9.05;;;;;;;23.62;27.10;98945.06;5067949;28;20029;-89
2021/11/09 03:14:28;;;;;;;11.93;8.15;;;;;;;23.85;27.10;98957.31;5066913;28;20367;-88
2021/11/09 03:16:58;;;;;;;10.95;7.35;;;;;;;23.72;27.08;98961.81;5069493;28;20029;-88
2021/11/09 03:19:39;;;;;;;8.27;6.47;;;;;;;23.07;28.16;98968.13;5069169;28;20024;-89
2021/11/09 03:44:32;;;;;;;9.35;6.85;;;;;;;23.77;27.05;98985.81;5066081;28;20239;-86
2021/11/09 03:47:12;;;;;;;11.85;8.23;;;;;;;23.29;27.76;98991.25;5065573;28;20040;-86
2021/11/09 03:49:40;;;;;;;12.93;8.13;;;;;;;23.54;27.51;98997.56;5068765;28;20064;-86
2021/11/09 03:52:16;;;;;;;10.65;7.35;;;;;;;23.24;27.82;98991.69;5067856;28;20083;-86
2021/11/09 03:54:42;;;;;;;11.52;7.45;;;;;;;23.66;27.21;98997.13;5070963;28;20024;-86
2021/11/09 03:57:21;;;;;;;11.82;6.70;;;;;;;23.56;27.52;99005.56;5061066;28;20067;-86
2021/11/09 04:00:03;;;;;;;11.50;7.30;;;;;;;22.92;28.53;99000.19;5070382;28;20423;-86
2021/11/09 04:02:36;;;;;;;12.20;7.05;;;;;;;23.21;28.08;98998.88;5072860;28;20028;-87
2021/11/09 04:05:06;;;;;;;10.02;7.90;;;;;;;23.03;28.25;99005.75;5073865;28;20052;-87
2021/11/09 04:07:41;;;;;;;11.30;7.03;;;;;;;22.74;29.06;99007.00;5067046;28;20461;-87
2021/11/09 04:10:57;;;;;;;10.23;6.53;;;;;;;23.46;27.82;99007.22;5067639;28;20056;-87
2021/11/09 04:18:37;;;;;;;11.75;8.07;;;;;;;23.25;27.69;99022.09;5071432;28;20040;-91
2021/11/09 04:21:22;;;;;;;10.65;7.28;;;;;;;23.55;27.19;99015.97;5068464;28;20048;-91
2021/11/09 04:26:49;;;;;;;12.07;7.20;;;;;;;23.33;28.03;99015.25;5068759;28;20029;-87
2021/11/09 04:29:25;;;;;;;11.85;8.65;;;;;;;22.88;28.56;99015.38;5062701;28;20052;-91
2021/11/09 04:32:06;;;;;;;10.52;6.68;;;;;;;22.81;28.47;99033.00;5067687;28;20035;-91
2021/11/09 04:35:15;;;;;;;10.20;6.97;;;;;;;23.00;28.35;99035.38;5066504;28;20024;-90
2021/11/09 04:41:11;;;;;;;10.70;7.18;;;;;;;23.34;27.46;99030.88;5066616;28;19924;-91
2021/11/09 04:44:38;;;;;;;15.07;9.32;;;;;;;23.03;28.37;99042.19;5069382;28;20125;-90
2021/11/09 04:49:15;;;;;;;12.68;8.48;;;;;;;22.74;28.54;99037.81;5075222;28;20385;-90
2021/11/09 04:52:06;;;;;;;11.45;7.22;;;;;;;23.22;28.25;99036.91;5064081;28;20698;-88
2021/11/09 05:10:34;;;;;;;15.95;10.30;;;;;;;23.04;28.26;99055.75;5069923;28;20065;-89
2021/11/09 05:13:01;;;;;;;16.45;10.85;;;;;;;22.83;28.26;99057.78;5065724;28;20029;-89
2021/11/09 05:15:27;;;;;;;10.50;7.50;;;;;;;22.47;29.12;99054.22;5068453;28;20036;-86
2021/11/09 05:17:54;;;;;;;11.75;8.52;;;;;;;22.96;28.45;99064.59;5069656;28;20381;-87
2021/11/09 05:20:20;;;;;;;12.82;8.02;;;;;;;23.09;28.24;99074.16;5061285;28;20115;-86
2021/11/09 05:22:46;;;;;;;11.80;7.80;;;;;;;23.00;28.31;99076.59;5070235;28;20037;-86
2021/11/09 05:25:13;;;;;;;8.88;6.05;;;;;;;23.24;27.88;99079.31;5069578;28;20044;-89
2021/11/09 05:27:40;;;;;;;11.90;8.00;;;;;;;23.85;27.13;99085.53;5073037;28;20398;-87
2021/11/09 05:30:07;;;;;;;11.15;7.20;;;;;;;23.70;27.17;99090.41;5082537;28;20120;-87
2021/11/09 05:32:33;;;;;;;9.63;6.68;;;;;;;23.16;27.88;99088.16;5087906;28;20040;-87
2021/11/09 05:34:59;;;;;;;9.52;6.55;;;;;;;23.58;27.47;99088.06;5076857;28;20039;-87
2021/11/09 05:37:30;;;;;;;10.45;6.72;;;;;;;23.63;27.18;99095.25;5064841;28;20036;-87
2021/11/09 05:39:59;;;;;;;8.23;6.07;;;;;;;24.14;26.67;99098.22;5063988;28;20049;-87
2021/11/09 05:42:25;;;;;;;9.93;6.85;;;;;;;24.12;26.60;99102.66;5076356;28;20036;-88
2021/11/09 05:44:52;;;;;;;7.70;5.97;;;;;;;24.26;26.30;99113.78;5065704;28;20055;-86
2021/11/09 05:47:18;;;;;;;9.30;6.68;;;;;;;23.87;26.78;99116.78;5064531;28;20474;-86
2021/11/09 05:49:44;;;;;;;5.82;5.22;;;;;;;24.32;26.17;99123.38;5066484;28;20040;-86
2021/11/09 05:52:10;;;;;;;7.25;5.53;;;;;;;24.56;25.96;99126.00;5060019;28;20032;-87
2021/11/09 05:54:37;;;;;;;8.98;6.30;;;;;;;24.82;25.33;99133.06;5069035;28;20428;-86
2021/11/09 05:57:04;;;;;;;8.35;5.43;;;;;;;24.43;25.75;99136.16;5071794;28;20029;-87
2021/11/09 05:59:30;;;;;;;7.15;6.07;;;;;;;24.41;26.03;99146.19;5054240;28;20051;-87
2021/11/09 06:01:56;;;;;;;8.88;6.43;;;;;;;24.23;26.07;99149.09;5064474;28;20032;-87
2021/11/09 06:04:22;;;;;;;8.75;6.57;;;;;;;23.57;27.20;99162.13;5072164;28;20039;-88
2021/11/09 06:06:48;;;;;;;8.23;6.40;;;;;;;23.24;27.82;99157.00;5064799;28;20048;-89
2021/11/09 06:09:14;;;;;;;8.15;5.97;;;;;;;23.79;27.17;99151.66;5053151;28;20041;-89
2021/11/09 06:11:40;;;;;;;12.95;8.35;;;;;;;23.52;27.46;99162.56;5068506;28;20032;-88
2021/11/09 06:14:07;;;;;;;11.13;7.32;;;;;;;23.86;27.01;99155.25;5073154;28;20071;-88
2021/11/09 06:16:34;;;;;;;10.45;7.15;;;;;;;24.67;25.73;99162.44;5072568;28;20070;-86
2021/11/09 06:19:00;;;;;;;9.73;7.57;;;;;;;24.59;25.82;99170.13;5063170;28;20530;-87
2021/11/09 06:21:26;;;;;;;11.57;7.93;;;;;;;23.93;26.67;99182.47;5064599;28;20080;-83
2021/11/09 06:23:53;;;;;;;8.48;6.20;;;;;;;24.13;26.53;99178.03;5064724;28;20036;-86
2021/11/09 06:26:21;;;;;;;8.98;5.32;;;;;;;23.80;26.89;99193.34;5063200;28;20024;-86
2021/11/09 06:28:48;;;;;;;9.00;6.63;;;;;;;24.33;26.31;99209.19;5063785;28;20087;-89
2021/11/09 06:31:14;;;;;;;7.25;5.80;;;;;;;24.38;25.95;99212.38;5053660;28;20413;-89
2021/11/09 06:33:40;;;;;;;9.15;6.75;;;;;;;24.54;25.69;99214.69;5066255;28;20040;-89
2021/11/09 06:36:06;;;;;;;9.82;6.47;;;;;;;24.72;25.50;99220.97;5066681;28;20036;-89
2021/11/09 06:38:33;;;;;;;6.82;4.90;;;;;;;24.55;25.53;99225.50;5063112;28;20043;-89
2021/11/09 06:40:59;;;;;;;6.47;4.90;;;;;;;23.40;26.85;99241.47;5065824;28;20040;-89
2021/11/09 06:43:25;;;;;;;9.85;5.78;;;;;;;24.35;26.07;99244.06;5069457;28;20082;-89
2021/11/09 06:45:53;;;;;;;8.60;6.03;;;;;;;24.37;26.12;99246.44;5065418;28;20509;-89
2021/11/09 06:48:19;;;;;;;8.52;5.22;;;;;;;24.29;26.13;99256.13;5064906;28;20047;-88
2021/11/09 06:50:46;;;;;;;7.35;5.43;;;;;;;24.53;25.75;99258.78;5068545;28;20028;-88
2021/11/09 06:53:12;;;;;;;8.60;5.53;;;;;;;24.53;25.97;99263.59;5069886;28;20032;-88
2021/11/09 06:55:39;;;;;;;7.18;4.55;;;;;;;24.27;25.99;99281.75;5065677;28;20036;-87
2021/11/09 06:58:05;;;;;;;7.15;5.05;;;;;;;24.86;25.50;99281.91;5065654;28;20498;-87
2021/11/09 07:00:32;;;;;;;5.72;4.63;;;;;;;24.88;25.34;99283.09;5066423;28;20594;-87
2021/11/09 07:02:58;;;;;;;7.95;5.72;;;;;;;24.54;25.66;99294.09;5064779;28;20056;-88
2021/11/09 07:05:25;;;;;;;7.50;5.68;;;;;;;24.47;26.09;99310.97;5066161;28;20039;-88
2021/11/09 07:07:51;;;;;;;11.23;6.65;;;;;;;24.23;25.97;99311.84;5064176;28;20036;-90
2021/11/09 07:10:17;;;;;;;9.82;6.65;;;;;;;24.61;25.76;99307.31;5051391;28;21480;-90
2021/11/09 07:12:44;;;;;;;9.20;6.45;;;;;;;24.21;26.03;99317.09;5070668;28;20487;-88
2021/11/09 07:15:11;;;;;;;10.60;6.85;;;;;;;24.20;26.12;99323.09;5072448;28;20024;-88
2021/11/09 07:17:39;;;;;;;8.10;6.22;;;;;;;24.39;26.04;99329.03;5071548;28;20075;-92
2021/11/09 07:20:14;;;;;;;10.02;6.43;;;;;;;24.22;26.17;99335.53;5074437;28;20131;-89
2021/11/09 07:22:40;;;;;;;8.02;5.80;;;;;;;24.68;25.51;99322.13;5065241;28;20079;-89
2021/11/09 07:25:07;;;;;;;11.23;7.18;;;;;;;24.52;25.62;99335.84;5062727;28;20036;-89
2021/11/09 07:27:33;;;;;;;10.85;7.15;;;;;;;24.56;25.44;99341.41;5068027;28;20028;-90
2021/11/09 07:30:03;;;;;;;8.05;5.93;;;;;;;24.37;25.98;99344.69;5064023;28;20036;-89
2021/11/09 07:32:29;;;;;;;12.88;7.57;;;;;;;24.17;26.25;99343.56;5050636;28;20033;-88
2021/11/09 07:34:56;;;;;;;11.70;7.53;;;;;;;24.21;26.27;99347.16;5072971;28;20029;-89
2021/11/09 07:37:23;;;;;;;15.52;9.07;;;;;;;24.35;25.95;99350.72;5062596;28;20491;-89
2021/11/09 07:39:49;;;;;;;11.18;7.43;;;;;;;23.93;26.57;99354.38;5070478;28;20071;-88
2021/11/09 07:42:17;;;;;;;9.02;6.47;;;;;;;23.89;26.66;99356.41;5069132;28;20444;-88
2021/11/09 07:44:44;;;;;;;15.73;9.52;;;;;;;23.24;27.55;99347.53;5058396;28;20039;-90
2021/11/09 07:47:11;;;;;;;11.55;7.15;;;;;;;23.69;27.01;99362.78;5075382;28;20097;-89
2021/11/09 07:49:37;;;;;;;12.20;7.20;;;;;;;24.24;26.30;99369.59;5066850;28;20049;-89
2021/11/09 07:52:04;;;;;;;13.25;7.63;;;;;;;24.24;26.34;99369.59;5075812;28;20032;-87
2021/11/09 07:54:34;;;;;;;12.77;8.10;;;;;;;24.16;26.45;99370.00;5078063;28;20035;-87
2021/11/09 07:57:06;;;;;;;12.18;8.38;;;;;;;23.68;26.98;99375.22;5071858;28;20036;-86
2021/11/09 07:59:37;;;;;;;16.30;10.63;;;;;;;23.47;27.37;99380.81;5069635;28;20055;-86
2021/11/09 08:02:06;;;;;;;11.88;8.65;;;;;;;23.58;27.18;99382.44;5065962;28;20127;-86
2021/11/09 08:07:18;;;;;;;11.85;8.70;;;;;;;23.79;26.89;99393.66;5068727;28;20048;-86
2021/11/09 08:09:45;;;;;;;15.60;8.93;;;;;;;23.47;27.17;99389.22;5067225;28;20567;-86
2021/11/09 08:12:11;;;;;;;12.05;7.80;;;;;;;23.34;27.50;99398.00;5071000;28;20060;-86
2021/11/09 08:14:37;;;;;;;14.07;8.00;;;;;;;23.69;26.90;99397.25;5068825;28;20108;-84
2021/11/09 08:17:04;;;;;;;14.35;8.27;;;;;;;23.83;26.83;99405.69;5067535;28;20058;-86
2021/11/09 08:19:31;;;;;;;12.88;7.20;;;;;;;24.24;26.17;99417.31;5067541;28;20037;-86
2021/11/09 08:21:58;;;;;;;10.88;6.68;;;;;;;23.98;26.74;99410.09;5071404;28;20115;-86
2021/11/09 08:24:25;;;;;;;16.02;9.10;;;;;;;23.20;27.82;99414.75;5071660;28;20040;-87
2021/11/09 08:26:53;;;;;;;18.98;8.57;;;;;;;23.24;27.78;99423.19;5053207;28;20024;-86
2021/11/09 08:29:25;;;;;;;18.35;10.85;;;;;;;23.10;28.13;99420.34;5071471;28;20418;-86
2021/11/09 08:31:52;;;;;;;16.23;9.40;;;;;;;22.75;28.77;99434.22;5070969;28;20371;-86
2021/11/09 08:34:19;;;;;;;16.30;11.75;;;;;;;22.56;29.15;99438.88;5065716;28;20111;-86
2021/11/09 08:36:45;;;;;;;15.63;9.70;;;;;;;23.54;28.00;99437.72;5070210;28;20071;-86
2021/11/09 08:39:17;;;;;;;16.80;10.85;;;;;;;24.04;27.15;99435.72;5068821;28;20043;-86
2021/11/09 08:41:49;;;;;;;17.35;12.20;;;;;;;24.37;26.63;99443.75;5068986;28;20037;-86
2021/11/09 08:44:21;;;;;;;17.27;10.02;;;;;;;23.38;27.73;99446.47;5070531;28;20033;-86
2021/11/09 08:46:58;;;;;;;15.80;10.23;;;;;;;23.89;27.31;99453.78;5072433;28;20028;-86
2021/11/09 08:49:27;;;;;;;14.02;9.10;;;;;;;23.88;26.96;99452.16;5067538;28;20033;-86
2021/11/09 08:51:55;;;;;;;14.10;9.38;;;;;;;23.79;27.26;99460.97;5070070;28;20027;-86
2021/11/09 08:54:31;;;;;;;15.57;9.65;;;;;;;24.35;27.00;99465.00;5069537;28;20550;-86
2021/11/09 09:04:55;;;;;;;12.60;8.18;;;;;;;23.60;27.46;99475.34;5071303;28;20122;-86
2021/11/09 09:07:27;;;;;;;15.80;9.32;;;;;;;23.64;27.83;99481.78;5067618;28;20086;-86
2021/11/09 09:09:54;;;;;;;14.43;9.27;;;;;;;23.38;28.00;99480.09;5064866;28;20868;-86
2021/11/09 09:12:21;;;;;;;12.23;7.88;;;;;;;24.17;27.07;99486.69;5063348;28;20054;-86
2021/11/09 09:14:48;;;;;;;12.23;8.80;;;;;;;23.40;27.72;99482.53;5065971;28;20047;-85
2021/11/09 09:17:14;;;;;;;16.90;10.15;;;;;;;23.32;28.27;99498.47;5070514;28;20039;-86
2021/11/09 09:19:45;;;;;;;14.25;9.30;;;;;;;23.84;27.60;99504.66;5067936;28;20210;-86
2021/11/09 09:22:13;;;;;;;13.48;9.35;;;;;;;23.61;27.96;99498.59;5066022;28;20387;-86
2021/11/09 09:32:57;;;;;;;9.68;6.85;;;;;;;25.39;26.02;99493.25;5063598;28;20067;-84
2021/11/09 09:57:28;;;;;;;15.43;9.90;;;;;;;26.59;23.87;99518.56;5069773;28;20482;-86
2021/11/09 09:59:56;;;;;;;11.05;7.00;;;;;;;26.72;24.12;99521.69;5065876;28;20029;-86
2021/11/09 10:02:30;;;;;;;11.25;7.22;;;;;;;27.05;23.79;99520.16;5066984;28;20032;-86
2021/11/09 10:04:57;;;;;;;11.05;6.80;;;;;;;27.48;23.28;99521.25;5043558;28;20555;-86
2021/11/09 10:07:46;;;;;;;11.20;6.53;;;;;;;27.52;22.75;99524.81;5066968;28;20157;-86
2021/11/09 10:10:15;;;;;;;9.32;6.03;;;;;;;27.45;23.32;99529.75;5061634;28;20072;-87
2021/11/09 10:12:44;;;;;;;9.40;6.10;;;;;;;27.03;23.71;99536.66;5070375;28;20055;-86
2021/11/09 10:15:13;;;;;;;8.50;5.85;;;;;;;26.93;23.81;99534.78;5065296;28;20041;-85
2021/11/09 10:17:44;;;;;;;8.00;5.95;;;;;;;26.94;23.68;99534.34;5066530;28;20032;-84
2021/11/09 10:20:17;;;;;;;7.47;5.88;;;;;;;26.83;23.55;99539.31;5062448;28;20048;-86
2021/11/09 10:22:47;;;;;;;5.82;4.78;;;;;;;27.01;23.70;99539.09;5062438;28;20029;-86
2021/11/09 10:25:18;;;;;;;6.10;4.50;;;;;;;27.36;23.65;99536.69;5045691;28;20033;-86
2021/11/09 10:27:48;;;;;;;7.13;4.88;;;;;;;27.56;22.85;99544.53;5070976;28;20031;-86
2021/11/09 10:30:21;;;;;;;7.03;5.40;;;;;;;27.82;22.66;99544.56;5062863;28;20135;-86
2021/11/09 10:32:48;;;;;;;6.88;4.75;;;;;;;28.10;22.71;99546.19;5080230;28;20029;-86
2021/11/09 10:35:16;;;;;;;5.25;4.75;;;;;;;27.95;22.72;99551.25;5064795;28;20036;-86
2021/11/09 10:37:55;;;;;;;7.13;5.53;;;;;;;27.36;23.18;99552.78;5063125;28;20151;-87
2021/11/09 10:40:26;;;;;;;7.03;4.50;;;;;;;27.47;22.70;99547.84;5043577;28;20037;-87
2021/11/09 10:42:56;;;;;;;9.25;6.32;;;;;;;26.94;23.36;99556.91;5051432;28;20024;-87
2021/11/09 10:45:24;;;;;;;8.80;5.53;;;;;;;26.61;24.19;99564.03;5063270;28;20052;-87
2021/11/09 10:47:55;;;;;;;6.28;4.05;;;;;;;27.10;23.58;99564.78;5062268;28;20032;-87
2021/11/09 10:50:23;;;;;;;;;;;;;;;27.45;23.27;99580.53;5067044;28;20067;-87
2021/11/09 10:53:13;;;;;;;6.38;4.28;;;;;;;27.69;23.00;99571.75;5063478;28;19964;-87
2021/11/09 10:59:07;;;;;;;7.15;4.97;;;;;;;26.71;24.02;99582.06;5064076;28;20037;-86
2021/11/09 11:04:30;;;;;;;5.93;4.18;;;;;;;26.06;24.32;99575.28;5061534;28;20082;-87
2021/11/09 11:07:01;;;;;;;7.45;4.22;;;;;;;26.13;24.51;99588.53;5067845;28;20051;-86
2021/11/09 11:09:28;;;;;;;7.25;4.68;;;;;;;25.74;24.67;99594.34;5069706;28;20693;-86
2021/11/09 11:11:58;;;;;;;7.07;4.25;;;;;;;26.09;24.80;99593.38;5072250;28;20040;-87
2021/11/09 11:14:28;;;;;;;8.10;5.22;;;;;;;25.54;25.10;99595.22;5065264;28;20033;-86
2021/11/09 11:16:59;;;;;;;7.05;4.40;;;;;;;26.24;24.47;99596.91;5069101;28;20497;-87
2021/11/09 11:19:27;;;;;;;5.25;3.92;;;;;;;27.04;24.08;99594.66;5063790;28;20042;-87
2021/11/09 11:21:55;;;;;;;6.70;4.55;;;;;;;27.12;23.20;99605.44;5056343;28;20151;-84
2021/11/09 11:24:21;;;;;;;7.70;4.93;;;;;;;26.50;24.02;99599.13;5059761;28;20028;-88
2021/11/09 11:26:50;;;;;;;5.38;4.32;;;;;;;26.27;24.13;99607.34;5063418;28;20040;-91
2021/11/09 11:29:18;;;;;;;9.02;5.00;;;;;;;26.62;24.04;99601.47;5061483;28;20447;-88
2021/11/09 11:31:46;;;;;;;6.90;4.63;;;;;;;26.94;23.84;99601.19;5061661;28;20029;-87
2021/11/09 11:34:17;;;;;;;8.45;4.78;;;;;;;26.53;23.95;99613.22;5059781;28;20060;-88
2021/11/09 11:36:45;;;;;;;7.90;4.47;;;;;;;26.52;24.06;99613.59;5064510;28;20028;-87
2021/11/09 11:39:13;;;;;;;5.28;3.38;;;;;;;26.83;23.32;99608.94;5061606;28;20517;-86
2021/11/09 11:41:44;;;;;;;5.38;3.78;;;;;;;27.01;23.12;99612.41;5064144;28;20033;-86
2021/11/09 11:44:20;;;;;;;;;;;;;;;27.07;22.77;99613.56;5057017;28;20450;-89
2021/11/09 11:46:49;;;;;;;4.32;3.47;;;;;;;26.47;23.73;99614.03;5063627;28;19920;-89
2021/11/09 11:49:19;;;;;;;6.35;4.18;;;;;;;26.52;23.29;99619.22;5066485;28;20094;-87
2021/11/09 11:51:45;;;;;;;6.25;4.63;;;;;;;26.60;23.31;99615.16;5045665;28;20103;-87
2021/11/09 11:54:18;;;;;;;4.95;3.58;;;;;;;25.90;24.08;99610.75;5062511;28;20032;-87
2021/11/09 11:56:50;;;;;;;6.72;3.65;;;;;;;25.87;24.53;99618.00;5065802;28;20498;-88
2021/11/09 11:59:23;;;;;;;4.45;3.17;;;;;;;26.45;23.96;99625.72;5063207;28;20111;-87
2021/11/09 12:01:50;;;;;;;5.88;3.58;;;;;;;26.48;23.84;99624.91;5068285;28;20545;-87
2021/11/09 12:04:39;;;;;;;9.38;4.45;;;;;;;26.36;23.41;99621.75;5069590;28;20490;-86
2021/11/09 12:07:10;;;;;;;4.75;3.28;;;;;;;26.66;23.68;99622.75;5067875;28;20033;-86
2021/11/09 12:09:39;;;;;;;4.63;3.45;;;;;;;27.15;22.74;99615.09;5068077;28;20375;-85
2021/11/09 12:12:21;;;;;;;6.10;3.55;;;;;;;27.18;22.09;99619.88;5066065;28;20115;-85
2021/11/09 12:14:51;;;;;;;3.72;2.92;;;;;;;27.42;22.83;99622.47;5067757;28;20169;-88
2021/11/09 12:17:32;;;;;;;4.32;3.75;;;;;;;27.45;22.16;99611.56;5064345;28;20111;-87
2021/11/09 12:20:04;;;;;;;4.97;3.40;;;;;;;27.13;22.05;99623.16;5067167;28;20060;-87
2021/11/09 12:22:47;;;;;;;5.25;3.28;;;;;;;27.13;22.19;99617.53;5069892;28;20141;-87
2021/11/09 12:25:32;;;;;;;4.15;2.95;;;;;;;26.87;22.89;99615.34;5064195;28;20149;-87
2021/11/09 12:28:07;;;;;;;6.18;3.35;;;;;;;27.30;22.47;99619.38;5067779;28;20028;-87
2021/11/09 12:33:23;;;;;;;3.85;3.03;;;;;;;27.62;21.84;99622.66;5068826;28;20066;-86
2021/11/09 12:36:11;;;;;;;6.07;3.28;;;;;;;27.56;22.10;99635.63;5063936;28;20036;-86
2021/11/09 12:38:44;;;;;;;8.02;5.45;;;;;;;26.97;22.50;99629.38;5037703;28;20426;-87
2021/11/09 12:41:27;;;;;;;7.45;4.65;;;;;;;27.39;22.82;99626.16;5049203;28;20048;-87
2021/11/09 12:43:55;;;;;;;8.48;5.78;;;;;;;27.87;22.21;99620.31;5064184;28;20799;-86
2021/11/09 12:46:36;;;;;;;5.95;4.60;;;;;;;27.92;22.11;99619.03;5063866;28;20036;-86
2021/11/09 12:49:17;;;;;;;8.40;5.47;;;;;;;27.95;21.80;99613.34;5049547;28;20126;-86
2021/11/09 12:51:52;;;;;;;6.65;4.53;;;;;;;28.08;21.71;99620.06;5066561;28;20032;-86
2021/11/09 12:54:20;;;;;;;6.18;3.83;;;;;;;28.24;21.48;99615.81;5062919;28;20032;-86
2021/11/09 12:56:51;;;;;;;9.90;4.90;;;;;;;28.35;21.35;99617.25;5068481;28;20040;-86
2021/11/09 12:59:36;;;;;;;8.35;4.78;;;;;;;28.31;21.21;99615.72;5069476;28;20051;-86
2021/11/09 13:09:49;;;;;;;7.72;5.15;;;;;;;27.39;21.60;99612.03;5061686;28;20029;-85
2021/11/09 13:12:20;;;;;;;6.28;4.65;;;;;;;27.06;21.90;99607.13;5065638;28;20029;-86
2021/11/09 13:14:58;;;;;;;6.88;4.18;;;;;;;27.07;22.03;99610.75;5066819;28;20028;-88
2021/11/09 13:17:32;;;;;;;7.32;4.63;;;;;;;27.40;21.32;99615.63;5068735;28;20052;-85
2021/11/09 13:20:04;;;;;;;7.72;4.93;;;;;;;27.64;21.34;99614.56;5062991;28;20041;-84
2021/11/09 13:22:30;;;;;;;6.18;4.65;;;;;;;27.75;20.99;99620.09;5066452;28;20036;-86
2021/11/09 13:24:59;;;;;;;8.18;4.55;;;;;;;27.80;20.87;99617.59;5062432;28;20576;-87
2021/11/09 13:27:48;;;;;;;8.27;5.68;;;;;;;27.89;20.72;99612.22;5066115;28;20037;-85
2021/11/09 13:30:22;;;;;;;8.15;4.38;;;;;;;27.86;20.77;99609.44;5068193;28;20105;-86
2021/11/09 13:32:52;;;;;;;7.93;5.03;;;;;;;27.81;21.03;99607.91;5064299;28;20040;-86
2021/11/09 13:35:25;;;;;;;11.05;5.68;;;;;;;27.78;21.16;99610.75;5063793;28;20137;-86
2021/11/09 13:38:13;;;;;;;9.85;5.80;;;;;;;27.60;21.28;99608.16;5064226;28;20068;-85
2021/11/09 13:40:52;;;;;;;8.57;4.85;;;;;;;27.49;21.21;99615.16;5062287;28;20121;-86